KYKM/YKM METAR and TAF weather

Enter ICAO airport designator
Station Type Date Time Source
KYKM METAR 2019/04/18 14:53 UTC NOAA

KYKM 181453Z 00000KT 10SM FEW100 11/07 A3024 RMK AO2 SLP241 T01060067 55000


Station Type Date Time Source
KYKM Decoded METAR 2019/04/18 14:53 UTC NOAA

YAKIMA AIR TERMINAL, WA, United States (KYKM) 46-34N 120-32W 324M
Apr 18, 2019 - 10:53 AM EDT / 2019.04.18 1453 UTC
Wind: Calm:0
Visibility: 10 mile(s):0
Sky conditions: mostly clear
Temperature: 51.1 F (10.6 C)
Dew Point: 44.1 F (6.7 C)
Relative Humidity: 76%
Pressure (altimeter): 30.24 in. Hg (1024 hPa)
Pressure tendency: 0.00 inches (0.0 hPa) lower than three hours ago
ob: KYKM 181453Z 00000KT 10SM FEW100 11/07 A3024 RMK AO2 SLP241 T01060067 55000
cycle: 15

Station Type Date Time Source
KYKM TAF 2019/04/18 12:22 UTC NOAA

TAF KYKM 181120Z 1812/1912 27005KT P6SM VCSH BKN100 BKN200
FM181700 17006KT P6SM SCT250
FM190300 25005KT P6SM SCT150

Example: see airport list